createdAt,value
2018-08-04T00:01:59.816Z,24.19
2018-08-04T00:04:29.621Z,24.29
2018-08-04T00:07:00.078Z,24.26
2018-08-04T00:09:30.128Z,24.09
2018-08-04T00:12:00.968Z,24.00
2018-08-04T00:14:31.361Z,23.97
2018-08-04T00:17:01.131Z,23.99
2018-08-04T00:19:31.379Z,24.23
2018-08-04T00:22:02.313Z,24.14
2018-08-04T00:24:32.648Z,23.92
2018-08-04T00:27:04.283Z,23.90
2018-08-04T00:29:34.507Z,23.91
2018-08-04T00:32:04.551Z,24.06
2018-08-04T00:34:34.962Z,23.90
2018-08-04T00:37:06.210Z,24.03
2018-08-04T00:39:36.927Z,23.89
2018-08-04T00:42:06.985Z,23.90
2018-08-04T00:44:36.718Z,24.05
2018-08-04T00:47:07.475Z,24.01
2018-08-04T00:49:37.006Z,24.11
2018-08-04T00:52:08.212Z,23.95
2018-08-04T00:54:37.371Z,23.77
2018-08-04T00:57:06.362Z,23.88
2018-08-04T00:59:35.335Z,23.65
2018-08-04T01:02:04.312Z,23.43
2018-08-04T01:04:33.383Z,23.45
2018-08-04T01:07:02.352Z,23.49
2018-08-04T01:09:31.310Z,23.51
2018-08-04T01:12:00.326Z,23.72
2018-08-04T01:14:29.303Z,23.87
2018-08-04T01:16:58.324Z,23.83
2018-08-04T01:19:27.299Z,23.94
2018-08-04T01:21:56.267Z,23.44
2018-08-04T01:24:25.291Z,23.57
2018-08-04T01:26:54.232Z,23.68
2018-08-04T01:29:23.195Z,23.39
2018-08-04T01:31:52.155Z,23.58
2018-08-04T01:34:21.179Z,23.73
2018-08-04T01:36:50.178Z,23.68
2018-08-04T01:39:19.153Z,23.78
2018-08-04T01:41:48.167Z,23.81
2018-08-04T01:44:17.164Z,23.56
2018-08-04T01:46:46.165Z,23.96
2018-08-04T01:49:15.187Z,23.89
2018-08-04T01:51:44.263Z,23.75
2018-08-04T01:54:13.243Z,23.68
2018-08-04T01:56:42.183Z,23.58
2018-08-04T01:59:11.234Z,23.40
2018-08-04T02:01:40.173Z,23.61
2018-08-04T02:04:09.194Z,23.35
2018-08-04T02:06:38.200Z,23.47
2018-08-04T02:09:08.214Z,23.41
2018-08-04T02:11:37.194Z,23.43
2018-08-04T02:14:06.247Z,23.68
2018-08-04T02:16:35.323Z,23.25
2018-08-04T02:19:04.300Z,23.51
2018-08-04T02:21:33.262Z,23.64
2018-08-04T02:24:02.243Z,23.69
2018-08-04T02:26:31.279Z,23.44
2018-08-04T02:29:00.231Z,23.28
2018-08-04T02:31:29.239Z,23.76
2018-08-04T02:33:58.248Z,23.86
2018-08-04T02:36:27.232Z,23.67
2018-08-04T02:38:56.199Z,24.01
2018-08-04T02:41:25.314Z,24.02
2018-08-04T02:43:54.311Z,24.00
2018-08-04T02:46:23.337Z,23.88
2018-08-04T02:48:52.326Z,23.59
2018-08-04T02:51:21.358Z,23.51
2018-08-04T02:53:50.336Z,23.62
2018-08-04T02:56:19.307Z,23.66
2018-08-04T02:58:48.256Z,23.66
2018-08-04T03:01:17.383Z,23.90
2018-08-04T03:03:46.360Z,23.81
2018-08-04T03:06:15.367Z,23.83
2018-08-04T03:08:44.339Z,23.69
2018-08-04T03:11:13.332Z,23.72
2018-08-04T03:13:42.317Z,23.64
2018-08-04T03:16:11.309Z,23.94
2018-08-04T03:18:41.306Z,23.80
2018-08-04T03:21:10.252Z,23.82
2018-08-04T03:23:39.222Z,23.80
2018-08-04T03:26:08.193Z,23.71
2018-08-04T03:28:37.199Z,24.31
2018-08-04T03:31:06.178Z,24.55
2018-08-04T03:33:35.163Z,24.48
2018-08-04T03:36:04.205Z,24.31
2018-08-04T03:38:33.127Z,24.42
2018-08-04T03:41:02.179Z,24.59
2018-08-04T03:43:31.147Z,24.40
2018-08-04T03:46:00.108Z,24.47
2018-08-04T03:48:29.075Z,24.83
2018-08-04T03:50:58.052Z,24.63
2018-08-04T03:53:27.131Z,24.58
2018-08-04T03:55:56.100Z,24.44
2018-08-04T03:58:25.063Z,24.49
2018-08-04T04:00:54.052Z,24.47
2018-08-04T04:03:23.054Z,24.38
2018-08-04T04:05:52.061Z,24.37
2018-08-04T04:08:21.019Z,24.58
2018-08-04T04:10:49.970Z,24.58
2018-08-04T04:13:18.943Z,24.53
2018-08-04T04:15:47.960Z,24.54
2018-08-04T04:18:16.987Z,24.90
2018-08-04T04:20:45.947Z,24.85
2018-08-04T04:23:15.030Z,24.61
2018-08-04T04:25:44.000Z,24.34
2018-08-04T04:28:13.000Z,24.73
2018-08-04T04:30:42.008Z,24.97
2018-08-04T04:33:10.966Z,24.66
2018-08-04T04:35:39.952Z,24.49
2018-08-04T04:38:08.895Z,24.67
2018-08-04T04:40:37.891Z,24.63
2018-08-04T04:43:06.898Z,24.78
2018-08-04T04:45:35.891Z,24.80
2018-08-04T04:48:05.031Z,24.95
2018-08-04T04:50:34.140Z,25.03
2018-08-04T04:53:03.107Z,25.15
2018-08-04T04:55:32.230Z,25.17
2018-08-04T04:58:01.176Z,25.30
2018-08-04T05:00:30.271Z,25.39
2018-08-04T05:02:59.472Z,25.70
2018-08-04T05:05:28.523Z,26.13
2018-08-04T05:07:57.612Z,25.78
2018-08-04T05:10:26.809Z,26.05
2018-08-04T05:12:55.842Z,26.18
2018-08-04T05:15:25.006Z,25.86
2018-08-04T05:17:54.060Z,25.99
2018-08-04T05:20:23.174Z,25.41
2018-08-04T05:22:52.217Z,26.05
2018-08-04T05:25:21.236Z,25.79
2018-08-04T05:27:50.253Z,25.67
2018-08-04T05:30:19.243Z,26.15
2018-08-04T05:32:48.291Z,26.55
2018-08-04T05:35:17.559Z,26.84
2018-08-04T05:37:47.335Z,26.58
2018-08-04T05:40:16.351Z,26.64
2018-08-04T05:42:45.299Z,26.78
2018-08-04T05:45:14.372Z,26.87
2018-08-04T05:47:43.386Z,26.72
2018-08-04T05:50:12.521Z,26.65
2018-08-04T05:52:41.498Z,26.59
2018-08-04T05:55:10.584Z,26.65
2018-08-04T05:57:39.561Z,26.98
2018-08-04T06:00:09.206Z,26.77
2018-08-04T06:02:38.374Z,27.31
2018-08-04T06:05:07.917Z,27.81
2018-08-04T06:07:38.014Z,28.21
2018-08-04T06:10:07.030Z,28.43
2018-08-04T06:12:36.170Z,28.22
2018-08-04T06:15:05.376Z,28.50
2018-08-04T06:17:34.411Z,29.29
2018-08-04T06:20:03.443Z,29.44
2018-08-04T06:22:32.503Z,29.96
2018-08-04T06:25:01.547Z,30.48
2018-08-04T06:27:30.616Z,30.64
2018-08-04T06:29:59.628Z,30.98
2018-08-04T06:32:28.639Z,31.20
2018-08-04T06:34:57.703Z,30.37
2018-08-04T06:37:26.716Z,30.41
2018-08-04T06:39:56.248Z,31.70
2018-08-04T06:42:25.641Z,30.68
2018-08-04T06:44:54.622Z,31.93
2018-08-04T06:47:23.658Z,31.59
2018-08-04T06:49:52.639Z,31.87
2018-08-04T06:52:21.716Z,31.15
2018-08-04T06:54:50.743Z,30.75
2018-08-04T06:57:19.778Z,30.93
2018-08-04T06:59:49.839Z,30.49
2018-08-04T07:02:18.837Z,30.41
2018-08-04T07:04:47.874Z,31.05
2018-08-04T07:07:16.876Z,31.69
2018-08-04T07:09:45.849Z,31.67
2018-08-04T07:12:14.905Z,32.58
2018-08-04T07:14:43.932Z,32.39
2018-08-04T07:17:12.960Z,32.41
2018-08-04T07:19:41.983Z,32.59
2018-08-04T07:22:10.967Z,32.19
2018-08-04T07:24:40.115Z,31.66
2018-08-04T07:27:09.319Z,31.85
2018-08-04T07:29:38.324Z,31.69
2018-08-04T07:32:07.339Z,31.44
2018-08-04T07:34:36.351Z,31.86
2018-08-04T07:37:05.811Z,32.46
2018-08-04T07:39:34.856Z,32.05
2018-08-04T07:42:03.844Z,32.26
2018-08-04T07:44:32.876Z,31.78
2018-08-04T07:47:01.883Z,32.03
2018-08-04T07:49:30.950Z,32.54
2018-08-04T07:52:00.108Z,33.10
2018-08-04T07:54:29.145Z,32.40
2018-08-04T07:56:58.209Z,32.37
2018-08-04T07:59:27.336Z,33.52
2018-08-04T08:01:56.315Z,34.30
2018-08-04T08:04:25.628Z,36.10
2018-08-04T08:06:54.682Z,37.15
2018-08-04T08:09:23.824Z,36.40
2018-08-04T08:11:52.923Z,36.36
2018-08-04T08:14:22.040Z,37.15
2018-08-04T08:16:51.100Z,36.80
2018-08-04T08:19:20.130Z,35.93
2018-08-04T08:21:49.188Z,35.90
2018-08-04T08:24:18.291Z,38.11
2018-08-04T08:26:47.400Z,37.81
2018-08-04T08:29:16.477Z,37.84
2018-08-04T08:31:45.488Z,37.32
2018-08-04T08:34:14.547Z,36.10
2018-08-04T08:36:43.567Z,37.98
2018-08-04T08:39:12.686Z,37.04
2018-08-04T08:41:41.739Z,37.93
2018-08-04T08:44:10.906Z,37.44
2018-08-04T08:49:15.050Z,37.74
2018-08-04T08:51:44.369Z,37.57
2018-08-04T08:54:14.649Z,37.88
2018-08-04T08:56:43.704Z,37.62
2018-08-04T08:59:13.827Z,36.98
2018-08-04T09:01:43.055Z,36.33
2018-08-04T09:04:12.134Z,37.27
2018-08-04T09:06:41.210Z,36.73
2018-08-04T09:09:10.955Z,36.33
2018-08-04T09:11:40.017Z,36.26
2018-08-04T09:14:09.074Z,36.25
2018-08-04T09:16:38.230Z,36.36
2018-08-04T09:19:07.416Z,37.45
2018-08-04T09:21:36.483Z,37.01
2018-08-04T09:24:05.599Z,35.84
2018-08-04T09:26:34.637Z,36.17
2018-08-04T09:29:03.735Z,37.02
2018-08-04T09:31:32.807Z,37.09
2018-08-04T09:34:01.861Z,37.41
2018-08-04T09:36:30.916Z,38.18
2018-08-04T09:38:59.992Z,39.66
2018-08-04T09:41:29.090Z,39.31
2018-08-04T09:43:58.082Z,39.88
2018-08-04T09:46:27.129Z,40.11
2018-08-04T09:48:56.151Z,39.90
2018-08-04T09:51:25.176Z,39.25
2018-08-04T09:53:54.154Z,39.86
2018-08-04T09:56:23.209Z,39.49
2018-08-04T09:58:52.259Z,40.16
2018-08-04T10:01:26.468Z,40.92
2018-08-04T10:03:55.555Z,41.14
2018-08-04T10:06:24.574Z,41.30
2018-08-04T10:08:53.647Z,41.17
2018-08-04T10:11:22.629Z,41.86
2018-08-04T10:13:51.597Z,41.81
2018-08-04T10:16:20.676Z,41.18
2018-08-04T10:18:49.756Z,41.14
2018-08-04T10:21:18.831Z,42.06
2018-08-04T10:23:47.929Z,41.58
2018-08-04T10:26:16.887Z,42.07
2018-08-04T10:28:46.048Z,42.99
2018-08-04T10:31:15.226Z,41.86
2018-08-04T10:33:44.240Z,42.61
2018-08-04T10:36:13.331Z,43.06
2018-08-04T10:38:42.458Z,41.90
2018-08-04T10:41:11.460Z,41.08
2018-08-04T10:43:40.487Z,41.04
2018-08-04T10:46:09.542Z,42.08
2018-08-04T10:48:38.570Z,43.10
2018-08-04T10:51:07.703Z,43.46
2018-08-04T10:53:36.748Z,42.85
2018-08-04T10:56:05.907Z,43.58
2018-08-04T10:58:35.009Z,43.10
2018-08-04T11:01:04.112Z,43.50
2018-08-04T11:03:33.126Z,42.51
2018-08-04T11:06:02.225Z,41.94
2018-08-04T11:08:31.260Z,41.74
2018-08-04T11:11:00.411Z,41.19
2018-08-04T11:13:29.466Z,42.83
2018-08-04T11:15:58.785Z,42.75
2018-08-04T11:18:27.795Z,41.06
2018-08-04T11:20:56.890Z,42.44
2018-08-04T11:23:25.989Z,42.48
2018-08-04T11:25:55.090Z,43.76
2018-08-04T11:28:24.160Z,41.63
2018-08-04T11:30:53.209Z,42.35
2018-08-04T11:33:22.443Z,42.23
2018-08-04T11:35:51.576Z,42.41
2018-08-04T11:38:20.675Z,42.93
2018-08-04T11:40:49.795Z,40.53
2018-08-04T11:43:18.844Z,41.40
2018-08-04T11:45:47.926Z,39.09
2018-08-04T11:48:17.009Z,38.46
2018-08-04T11:50:46.102Z,37.38
2018-08-04T11:53:15.195Z,37.83
2018-08-04T11:55:44.236Z,37.31
2018-08-04T11:58:13.302Z,36.76
2018-08-04T12:00:42.366Z,37.66
2018-08-04T12:03:11.451Z,37.13
2018-08-04T12:05:40.618Z,36.93
2018-08-04T12:08:09.630Z,37.52
2018-08-04T12:10:38.681Z,36.45
2018-08-04T12:13:07.737Z,36.71
2018-08-04T12:15:36.767Z,36.74
2018-08-04T12:18:05.936Z,36.04
2018-08-04T12:20:34.931Z,36.87
2018-08-04T12:23:04.025Z,37.30
2018-08-04T12:25:33.138Z,37.17
2018-08-04T12:28:02.131Z,36.96
2018-08-04T12:30:31.203Z,36.93
2018-08-04T12:33:01.198Z,37.06
2018-08-04T12:35:30.336Z,37.65
2018-08-04T12:37:59.395Z,37.39
2018-08-04T12:40:28.495Z,37.03
2018-08-04T12:42:57.519Z,37.67
2018-08-04T12:45:26.643Z,38.37
2018-08-04T12:47:55.821Z,37.83
2018-08-04T12:50:24.826Z,37.24
2018-08-04T12:52:53.847Z,36.22
2018-08-04T12:55:22.864Z,36.10
2018-08-04T12:57:51.886Z,36.88
2018-08-04T13:00:21.008Z,36.80
2018-08-04T13:02:50.456Z,36.88
2018-08-04T13:05:19.489Z,36.72
2018-08-04T13:07:48.468Z,35.04
2018-08-04T13:10:17.459Z,36.59
2018-08-04T13:12:46.463Z,36.38
2018-08-04T13:15:15.414Z,36.61
2018-08-04T13:17:44.432Z,36.65
2018-08-04T13:20:13.372Z,36.15
2018-08-04T13:22:42.384Z,36.57
2018-08-04T13:25:11.647Z,36.34
2018-08-04T13:27:40.705Z,36.84
2018-08-04T13:30:09.753Z,36.14
2018-08-04T13:32:38.932Z,36.01
2018-08-04T13:35:08.400Z,36.41
2018-08-04T13:37:37.518Z,34.78
2018-08-04T13:40:06.656Z,35.57
2018-08-04T13:42:35.793Z,36.22
2018-08-04T13:45:05.354Z,35.27
2018-08-04T13:47:34.360Z,35.04
2018-08-04T13:50:03.440Z,35.48
2018-08-04T13:52:32.553Z,35.31
2018-08-04T13:55:01.519Z,35.85
2018-08-04T13:57:30.608Z,36.31
2018-08-04T13:59:59.651Z,36.20
2018-08-04T14:02:28.774Z,36.44
2018-08-04T14:04:57.863Z,35.53
2018-08-04T14:07:26.959Z,36.50
2018-08-04T14:09:56.051Z,35.20
2018-08-04T14:12:25.097Z,34.95
2018-08-04T14:14:54.183Z,35.30
2018-08-04T14:17:23.333Z,34.93
2018-08-04T14:19:52.362Z,35.06
2018-08-04T14:22:21.482Z,35.20
2018-08-04T14:24:50.624Z,34.81
2018-08-04T14:27:19.695Z,35.43
2018-08-04T14:29:48.700Z,35.30
2018-08-04T14:32:17.759Z,35.07
2018-08-04T14:34:46.823Z,34.73
2018-08-04T14:37:15.866Z,35.11
2018-08-04T14:39:44.974Z,35.03
2018-08-04T14:42:14.111Z,34.79
2018-08-04T14:44:43.175Z,35.71
2018-08-04T14:47:12.210Z,35.01
2018-08-04T14:49:41.315Z,35.20
2018-08-04T14:52:10.445Z,34.87
2018-08-04T14:54:39.456Z,35.25
2018-08-04T14:57:08.475Z,34.07
2018-08-04T14:59:37.491Z,34.95
2018-08-04T15:02:07.259Z,35.30
2018-08-04T15:04:36.394Z,35.72
2018-08-04T15:07:05.587Z,35.25
2018-08-04T15:09:34.595Z,34.86
2018-08-04T15:12:03.648Z,34.87
2018-08-04T15:14:32.757Z,34.64
2018-08-04T15:17:01.880Z,34.42
2018-08-04T15:19:30.942Z,35.16
2018-08-04T15:22:00.063Z,34.44
2018-08-04T15:24:29.115Z,34.86
2018-08-04T15:26:58.167Z,35.13
2018-08-04T15:29:27.289Z,35.16
2018-08-04T15:31:56.694Z,35.27
2018-08-04T15:34:25.731Z,35.08
2018-08-04T15:36:54.836Z,34.88
2018-08-04T15:39:23.916Z,34.72
2018-08-04T15:41:52.926Z,34.34
2018-08-04T15:44:22.163Z,34.69
2018-08-04T15:46:51.536Z,34.62
2018-08-04T15:49:20.867Z,34.62
2018-08-04T15:51:50.191Z,34.47
2018-08-04T15:54:19.542Z,34.20
2018-08-04T15:56:49.215Z,33.87
2018-08-04T15:59:18.341Z,33.51
2018-08-04T16:01:47.561Z,33.65
2018-08-04T16:04:16.626Z,33.86
2018-08-04T16:06:45.886Z,33.90
2018-08-04T16:09:15.125Z,33.98
2018-08-04T16:11:44.209Z,34.13
2018-08-04T16:14:13.570Z,33.78
2018-08-04T16:16:42.803Z,34.14
2018-08-04T16:19:11.832Z,33.56
2018-08-04T16:21:40.813Z,33.76
2018-08-04T16:24:09.787Z,33.60
2018-08-04T16:26:38.799Z,33.20
2018-08-04T16:29:07.827Z,33.01
2018-08-04T16:31:36.924Z,33.27
2018-08-04T16:34:05.984Z,33.30
2018-08-04T16:36:35.023Z,33.18
2018-08-04T16:39:06.172Z,33.18
2018-08-04T16:41:36.124Z,33.53
2018-08-04T16:44:05.128Z,32.70
2018-08-04T16:46:35.159Z,33.76
2018-08-04T16:49:04.194Z,33.27
2018-08-04T16:51:33.236Z,32.85
2018-08-04T16:54:02.358Z,31.81
2018-08-04T16:56:31.428Z,32.67
2018-08-04T16:59:00.391Z,32.82
2018-08-04T17:01:29.391Z,33.06
2018-08-04T17:03:58.454Z,32.65
2018-08-04T17:06:27.517Z,32.40
2018-08-04T17:08:56.876Z,32.25
2018-08-04T17:11:25.955Z,32.20
2018-08-04T17:13:55.193Z,32.40
2018-08-04T17:16:24.632Z,32.25
2018-08-04T17:18:53.842Z,32.42
2018-08-04T17:21:23.059Z,31.81
2018-08-04T17:23:52.091Z,32.54
2018-08-04T17:26:21.305Z,32.32
2018-08-04T17:28:50.731Z,31.91
2018-08-04T17:31:19.723Z,32.20
2018-08-04T17:33:48.751Z,32.51
2018-08-04T17:36:18.130Z,32.56
2018-08-04T17:38:47.202Z,32.29
2018-08-04T17:41:16.555Z,32.69
2018-08-04T17:43:45.634Z,32.36
2018-08-04T17:46:14.802Z,31.89
2018-08-04T17:48:44.164Z,31.56
2018-08-04T17:51:13.558Z,31.72
2018-08-04T17:53:42.830Z,32.36
2018-08-04T17:56:11.860Z,32.28
2018-08-04T17:58:41.131Z,32.16
2018-08-04T18:01:10.238Z,32.24
2018-08-04T18:03:39.421Z,32.45
2018-08-04T18:06:08.440Z,32.15
2018-08-04T18:08:37.419Z,32.11
2018-08-04T18:11:06.468Z,31.82
2018-08-04T18:13:35.538Z,32.01
2018-08-04T18:16:06.879Z,31.72
2018-08-04T18:18:36.243Z,31.93
2018-08-04T18:21:05.497Z,31.71
2018-08-04T18:23:34.623Z,31.81
2018-08-04T18:26:03.900Z,31.58
2018-08-04T18:28:33.400Z,31.34
2018-08-04T18:31:02.458Z,31.40
2018-08-04T18:33:31.416Z,30.88
2018-08-04T18:36:00.381Z,31.37
2018-08-04T18:38:29.402Z,31.37
2018-08-04T18:40:58.722Z,31.21
2018-08-04T18:43:27.910Z,30.85
2018-08-04T18:45:57.455Z,30.96
2018-08-04T18:48:26.684Z,31.08
2018-08-04T18:50:55.849Z,30.84
2018-08-04T18:53:25.123Z,30.98
2018-08-04T18:55:54.395Z,31.23
2018-08-04T18:58:23.707Z,30.70
2018-08-04T19:00:53.080Z,30.99
2018-08-04T19:03:22.571Z,30.78
2018-08-04T19:05:52.372Z,30.96
2018-08-04T19:08:21.830Z,30.77
2018-08-04T19:10:51.237Z,30.55
2018-08-04T19:13:20.407Z,30.42
2018-08-04T19:15:49.468Z,30.46
2018-08-04T19:18:18.786Z,30.41
2018-08-04T19:20:47.928Z,30.31
2018-08-04T19:23:16.987Z,30.39
2018-08-04T19:25:46.447Z,30.28
2018-08-04T19:28:15.771Z,30.17
2018-08-04T19:30:45.197Z,30.23
2018-08-04T19:33:14.318Z,30.20
2018-08-04T19:35:43.605Z,29.63
2018-08-04T19:38:12.966Z,29.33
2018-08-04T19:40:42.268Z,29.17
2018-08-04T19:43:11.464Z,29.00
2018-08-04T19:45:40.500Z,28.74
2018-08-04T19:48:09.554Z,28.33
2018-08-04T19:50:38.475Z,28.46
2018-08-04T19:53:07.475Z,28.31
2018-08-04T19:55:36.485Z,28.09
2018-08-04T19:58:05.487Z,27.94
2018-08-04T20:00:34.523Z,27.74
2018-08-04T20:03:03.534Z,27.72
2018-08-04T20:05:32.481Z,27.53
2018-08-04T20:08:01.479Z,27.67
2018-08-04T20:10:30.459Z,27.73
2018-08-04T20:12:59.479Z,27.36
2018-08-04T20:15:28.430Z,27.71
2018-08-04T20:17:57.459Z,27.43
2018-08-04T20:20:26.471Z,27.51
2018-08-04T20:22:55.471Z,27.51
2018-08-04T20:25:24.537Z,27.71
2018-08-04T20:27:53.491Z,27.38
2018-08-04T20:30:22.448Z,27.42
2018-08-04T20:32:51.442Z,27.34
2018-08-04T20:35:20.408Z,28.17
2018-08-04T20:37:49.416Z,28.22
2018-08-04T20:40:18.441Z,27.92
2018-08-04T20:42:47.480Z,27.86
2018-08-04T20:45:16.447Z,27.93
2018-08-04T20:47:45.378Z,27.82
2018-08-04T20:50:14.371Z,27.94
2018-08-04T20:52:43.353Z,28.13
2018-08-04T20:55:12.370Z,27.88
2018-08-04T20:57:41.362Z,27.39
2018-08-04T21:00:10.317Z,27.26
2018-08-04T21:02:39.324Z,27.18
2018-08-04T21:05:08.303Z,27.47
2018-08-04T21:07:37.276Z,27.36
2018-08-04T21:10:06.395Z,27.55
2018-08-04T21:12:36.355Z,27.13
2018-08-04T21:15:05.371Z,27.49
2018-08-04T21:17:34.326Z,27.20
2018-08-04T21:20:03.380Z,26.96
2018-08-04T21:22:32.326Z,26.90
2018-08-04T21:25:01.298Z,26.55
2018-08-04T21:27:30.278Z,26.97
2018-08-04T21:29:59.268Z,26.60
2018-08-04T21:32:28.278Z,27.14
2018-08-04T21:34:57.284Z,26.90
2018-08-04T21:37:26.306Z,26.85
2018-08-04T21:39:55.266Z,26.55
2018-08-04T21:42:24.286Z,26.93
2018-08-04T21:44:53.262Z,27.10
2018-08-04T21:47:22.222Z,26.83
2018-08-04T21:49:51.210Z,27.03
2018-08-04T21:52:20.201Z,26.81
2018-08-04T21:54:49.129Z,26.84
2018-08-04T21:57:18.140Z,26.86
2018-08-04T21:59:47.146Z,26.55
2018-08-04T22:02:16.199Z,26.89
2018-08-04T22:04:45.169Z,26.85
2018-08-04T22:07:50.860Z,26.92
2018-08-04T22:10:19.812Z,26.40
2018-08-04T22:12:48.850Z,26.53
2018-08-04T22:15:17.770Z,26.08
2018-08-04T22:17:46.728Z,26.15
2018-08-04T22:20:17.694Z,26.39
2018-08-04T22:22:46.671Z,26.11
2018-08-04T22:25:16.879Z,26.12
2018-08-04T22:27:45.914Z,25.80
2018-08-04T22:30:16.075Z,26.05
2018-08-04T22:32:45.522Z,25.83
2018-08-04T22:35:14.524Z,26.13
2018-08-04T22:37:43.634Z,26.02
2018-08-04T22:40:13.614Z,26.12
2018-08-04T22:42:42.882Z,25.84
2018-08-04T22:45:53.775Z,26.16
2018-08-04T22:48:23.101Z,25.82
2018-08-04T22:50:52.111Z,25.95
2018-08-04T22:53:21.054Z,26.21
2018-08-04T22:55:49.998Z,26.42
2018-08-04T22:58:18.959Z,25.56
2018-08-04T23:00:47.913Z,25.56
2018-08-04T23:03:16.981Z,25.86
2018-08-04T23:05:45.935Z,26.11
2018-08-04T23:08:15.048Z,25.75
2018-08-04T23:10:44.433Z,25.48
2018-08-04T23:13:13.729Z,26.09
2018-08-04T23:15:42.719Z,25.88
2018-08-04T23:18:11.743Z,25.75
2018-08-04T23:20:40.730Z,26.06
2018-08-04T23:23:10.736Z,25.63
2018-08-04T23:25:39.681Z,25.70
2018-08-04T23:28:08.931Z,25.89
2018-08-04T23:30:37.892Z,26.01
2018-08-04T23:33:06.838Z,25.87
2018-08-04T23:35:35.807Z,25.98
2018-08-04T23:38:04.770Z,25.78
2018-08-04T23:40:33.780Z,25.66
2018-08-04T23:43:02.776Z,25.90
2018-08-04T23:45:31.753Z,26.25
2018-08-04T23:48:00.748Z,26.12
2018-08-04T23:50:29.702Z,25.50
2018-08-04T23:52:58.707Z,25.22
2018-08-04T23:55:27.660Z,25.18
2018-08-04T23:57:56.632Z,25.03
